createdAt,value
2018-12-11T07:58:17.593Z,332
2018-12-11T07:58:49.577Z,340
2018-12-11T07:59:21.624Z,348
2018-12-11T07:59:53.705Z,352
2018-12-11T08:00:26.565Z,360
2018-12-11T08:00:58.817Z,360
2018-12-11T08:01:30.762Z,368
2018-12-11T08:02:02.768Z,372
2018-12-11T08:02:35.002Z,376
2018-12-11T08:03:07.258Z,380
2018-12-11T08:03:39.275Z,388
2018-12-11T08:04:11.384Z,392
2018-12-11T08:04:43.398Z,396
2018-12-11T08:05:15.372Z,404
2018-12-11T08:05:47.341Z,408
2018-12-11T08:06:19.323Z,412
2018-12-11T08:06:51.361Z,420
2018-12-11T08:07:23.392Z,424
2018-12-11T08:07:55.366Z,436
2018-12-11T08:08:27.348Z,444
2018-12-11T08:08:59.308Z,452
2018-12-11T08:09:31.275Z,464
2018-12-11T08:10:03.256Z,472
2018-12-11T08:10:35.265Z,480
2018-12-11T08:11:07.279Z,488
2018-12-11T08:11:39.240Z,492
2018-12-11T08:12:11.232Z,500
2018-12-11T08:12:43.240Z,508
2018-12-11T08:13:15.212Z,516
2018-12-11T08:13:47.183Z,524
2018-12-11T08:14:19.182Z,532
2018-12-11T08:14:51.156Z,540
2018-12-11T08:15:23.126Z,548
2018-12-11T08:15:55.128Z,560
2018-12-11T08:16:27.115Z,576
2018-12-11T08:16:59.123Z,584
2018-12-11T08:17:31.120Z,600
2018-12-11T08:18:03.100Z,612
2018-12-11T08:18:35.107Z,624
2018-12-11T08:19:07.067Z,640
2018-12-11T08:19:39.054Z,652
2018-12-11T08:20:11.084Z,664
2018-12-11T08:20:43.071Z,676
2018-12-11T08:21:16.434Z,692
2018-12-11T08:21:48.544Z,708
2018-12-11T08:22:20.497Z,728
2018-12-11T08:22:52.495Z,752
2018-12-11T08:23:24.471Z,776
2018-12-11T08:23:56.500Z,804
2018-12-11T08:24:28.505Z,828
2018-12-11T08:25:00.485Z,832
2018-12-11T08:25:32.490Z,836
2018-12-11T08:26:04.458Z,848
2018-12-11T08:26:36.434Z,792
2018-12-11T08:27:08.446Z,776
2018-12-11T08:27:40.426Z,780
2018-12-11T08:28:12.402Z,776
2018-12-11T08:28:44.401Z,816
2018-12-11T08:29:16.367Z,836
2018-12-11T08:29:48.321Z,852
2018-12-11T08:30:20.286Z,848
2018-12-11T08:30:52.242Z,872
2018-12-11T08:31:24.226Z,872
2018-12-11T08:31:56.202Z,900
2018-12-11T08:32:28.172Z,924
2018-12-11T08:33:00.142Z,932
2018-12-11T08:33:32.137Z,896
2018-12-11T08:34:04.105Z,820
2018-12-11T08:34:36.073Z,764
2018-12-11T08:35:08.045Z,784
2018-12-11T08:35:40.015Z,976
2018-12-11T08:36:11.966Z,968
2018-12-11T08:36:43.918Z,924
2018-12-11T08:37:15.897Z,888
2018-12-11T08:37:47.922Z,904
2018-12-11T08:38:19.886Z,908
2018-12-11T08:38:51.858Z,764
2018-12-11T08:39:23.830Z,740
2018-12-11T08:39:55.826Z,804
2018-12-11T08:40:27.789Z,840
2018-12-11T08:40:59.760Z,884
2018-12-11T08:41:31.755Z,892
2018-12-11T08:42:03.730Z,1040
2018-12-11T08:42:35.698Z,1092
2018-12-11T08:43:07.659Z,1104
2018-12-11T08:43:39.670Z,1120
2018-12-11T08:44:11.655Z,1136
2018-12-11T08:44:43.716Z,1152
2018-12-11T08:45:15.720Z,1176
2018-12-11T08:45:47.733Z,1192
2018-12-11T08:46:19.734Z,1208
2018-12-11T08:46:51.709Z,1220
2018-12-11T08:47:23.676Z,1232
2018-12-11T08:47:55.672Z,1236
2018-12-11T08:48:27.634Z,1244
2018-12-11T08:48:59.626Z,1256
2018-12-11T08:49:31.658Z,1252
2018-12-11T08:50:03.647Z,1252
2018-12-11T08:50:35.648Z,1232
2018-12-11T08:51:07.626Z,1216
2018-12-11T08:51:39.614Z,1216
2018-12-11T08:52:11.597Z,1240
2018-12-11T08:52:43.621Z,1260
2018-12-11T08:53:15.585Z,1264
2018-12-11T08:53:47.557Z,1260
2018-12-11T08:54:19.536Z,1224
2018-12-11T08:54:51.543Z,1180
2018-12-11T08:55:23.556Z,1132
2018-12-11T08:55:55.526Z,1092
2018-12-11T08:56:27.508Z,1060
2018-12-11T08:56:59.494Z,1048
2018-12-11T08:57:31.481Z,1044
2018-12-11T08:58:03.459Z,1052
2018-12-11T08:58:35.448Z,1076
2018-12-11T08:59:08.151Z,1120
2018-12-11T08:59:40.172Z,1168
2018-12-11T09:00:12.162Z,1232
2018-12-11T09:00:44.161Z,1292
2018-12-11T09:01:16.121Z,1356
2018-12-11T09:01:48.097Z,1420
2018-12-11T09:02:20.075Z,1468
2018-12-11T09:02:52.058Z,1512
2018-12-11T09:03:24.037Z,1548
2018-12-11T09:03:56.033Z,1584
2018-12-11T09:04:28.239Z,1616
2018-12-11T09:05:00.243Z,1624
2018-12-11T09:05:32.232Z,1620
2018-12-11T09:06:04.300Z,1624
2018-12-11T09:06:36.272Z,1640
2018-12-11T09:07:08.962Z,1656
2018-12-11T09:07:40.965Z,1668
2018-12-11T09:08:12.950Z,1692
2018-12-11T09:08:44.926Z,1708
2018-12-11T09:09:16.920Z,1720
2018-12-11T09:09:48.896Z,1732
2018-12-11T09:10:20.862Z,1740
2018-12-11T09:10:52.839Z,1756
2018-12-11T09:11:24.910Z,1764
2018-12-11T09:11:56.894Z,1768
2018-12-11T09:12:28.893Z,1776
2018-12-11T09:13:00.890Z,1788
2018-12-11T09:13:32.881Z,1800
2018-12-11T09:14:04.856Z,1800
2018-12-11T09:14:36.841Z,1792
2018-12-11T09:15:08.857Z,1792
2018-12-11T09:15:40.808Z,1808
2018-12-11T09:16:12.846Z,1816
2018-12-11T09:16:44.864Z,1836
2018-12-11T09:17:16.846Z,1840
2018-12-11T09:17:48.857Z,1844
2018-12-11T09:18:20.833Z,1844
2018-12-11T09:18:52.857Z,1852
2018-12-11T09:19:24.843Z,1892
2018-12-11T09:19:56.849Z,1940
2018-12-11T09:20:29.864Z,1984
2018-12-11T09:21:01.861Z,2072
2018-12-11T09:21:33.898Z,2156
2018-12-11T09:22:05.882Z,2200
2018-12-11T09:22:37.869Z,2240
2018-12-11T09:23:10.015Z,2236
2018-12-11T09:23:42.085Z,2204
2018-12-11T09:24:14.059Z,2196
2018-12-11T09:24:46.148Z,2204
2018-12-11T09:25:18.243Z,2284
2018-12-11T09:25:50.249Z,2412
2018-12-11T09:26:22.244Z,2508
2018-12-11T09:26:54.248Z,2584
2018-12-11T09:27:26.663Z,2620
2018-12-11T09:27:58.676Z,2664
2018-12-11T09:28:30.749Z,2736
2018-12-11T09:29:02.727Z,2756
2018-12-11T09:29:34.715Z,2692
2018-12-11T09:30:06.720Z,2736
2018-12-11T09:30:38.718Z,2720
2018-12-11T09:31:10.698Z,2680
2018-12-11T09:31:42.797Z,2660
2018-12-11T09:32:14.802Z,2640
2018-12-11T09:32:46.811Z,2340
2018-12-11T09:33:18.815Z,2096
2018-12-11T09:33:50.810Z,1840
2018-12-11T09:34:22.785Z,1928
2018-12-11T09:34:54.775Z,1524
2018-12-11T09:35:26.773Z,1532
2018-12-11T09:35:58.774Z,1320
2018-12-11T09:36:30.755Z,1124
2018-12-11T09:37:02.752Z,1032
2018-12-11T09:37:35.060Z,992
2018-12-11T09:38:07.297Z,984
2018-12-11T09:38:39.307Z,1020
2018-12-11T09:39:11.287Z,1064
2018-12-11T09:39:43.257Z,1112
2018-12-11T09:40:15.231Z,1620
2018-12-11T09:40:47.195Z,1864
2018-12-11T09:41:19.172Z,1932
2018-12-11T09:41:51.122Z,1992
2018-12-11T09:42:29.121Z,2016
2018-12-11T09:43:01.114Z,2032
2018-12-11T09:43:33.088Z,2028
2018-12-11T09:44:05.079Z,2060
2018-12-11T09:44:37.081Z,2108
2018-12-11T09:45:09.064Z,2188
2018-12-11T09:45:41.022Z,2260
2018-12-11T09:46:13.006Z,2320
2018-12-11T09:46:45.010Z,2380
2018-12-11T09:47:16.979Z,2496
2018-12-11T09:47:49.001Z,2660
2018-12-11T09:48:21.001Z,2804
2018-12-11T09:48:52.967Z,2936
2018-12-11T09:49:24.949Z,2972
2018-12-11T09:49:56.932Z,2912
2018-12-11T09:50:28.894Z,2828
2018-12-11T09:51:00.867Z,2788
2018-12-11T09:51:32.857Z,2680
2018-12-11T09:52:04.857Z,2592
2018-12-11T09:52:36.859Z,2384
2018-12-11T09:53:08.837Z,2292
2018-12-11T09:53:40.818Z,1992
2018-12-11T09:54:12.818Z,1664
2018-12-11T09:54:44.828Z,1504
2018-12-11T09:55:16.798Z,1488
2018-12-11T09:55:48.804Z,1676
2018-12-11T09:56:20.968Z,1432
2018-12-11T09:56:53.057Z,1412
2018-12-11T09:57:25.127Z,1420
2018-12-11T09:57:57.116Z,1480
2018-12-11T09:58:29.119Z,2356
2018-12-11T09:59:01.141Z,2284
2018-12-11T09:59:33.138Z,2440
2018-12-11T10:00:05.106Z,2540
2018-12-11T10:00:37.406Z,2688
2018-12-11T10:01:09.554Z,2864
2018-12-11T10:01:41.535Z,3032
2018-12-11T10:02:13.530Z,3156
2018-12-11T10:02:45.554Z,3252
2018-12-11T10:03:17.551Z,3276
2018-12-11T10:03:49.536Z,3212
2018-12-11T10:04:21.536Z,3020
2018-12-11T10:04:53.505Z,2532
2018-12-11T10:05:25.489Z,2836
2018-12-11T10:05:57.483Z,2684
2018-12-11T10:06:29.475Z,2368
2018-12-11T10:07:01.448Z,2600
2018-12-11T10:07:33.419Z,2820
2018-12-11T10:08:05.393Z,2820
2018-12-11T10:08:37.361Z,2796
2018-12-11T10:09:09.394Z,2460
2018-12-11T10:09:41.380Z,2700
2018-12-11T10:10:13.386Z,2984
2018-12-11T10:10:45.390Z,2912
2018-12-11T10:11:17.359Z,2692
2018-12-11T10:11:49.363Z,2664
2018-12-11T10:12:21.334Z,2484
2018-12-11T10:12:53.302Z,2172
2018-12-11T10:13:25.307Z,2240
2018-12-11T10:13:57.282Z,1688
2018-12-11T10:14:29.298Z,1380
2018-12-11T10:15:01.273Z,1288
2018-12-11T10:15:33.276Z,1236
2018-12-11T10:16:05.275Z,1196
2018-12-11T10:16:37.248Z,1164
2018-12-11T10:17:09.241Z,1148
2018-12-11T10:17:41.219Z,1164
2018-12-11T10:18:13.192Z,1236
2018-12-11T10:18:45.152Z,1332
2018-12-11T10:19:17.241Z,1424
2018-12-11T10:19:49.224Z,1500
2018-12-11T10:20:21.196Z,1568
2018-12-11T10:20:53.261Z,1640
2018-12-11T10:21:25.253Z,1708
2018-12-11T10:21:57.231Z,1752
2018-12-11T10:22:29.220Z,1784
2018-12-11T10:23:01.236Z,1836
2018-12-11T10:23:33.247Z,1888
2018-12-11T10:24:05.222Z,2104
2018-12-11T10:24:37.196Z,2464
2018-12-11T10:25:09.190Z,2660
2018-12-11T10:25:41.183Z,2508
2018-12-11T10:26:13.172Z,2504
2018-12-11T10:26:45.148Z,2444
2018-12-11T10:27:17.146Z,2568
2018-12-11T10:27:49.114Z,2556
2018-12-11T10:28:21.086Z,2548
2018-12-11T10:28:53.086Z,2604
2018-12-11T10:29:25.173Z,2556
2018-12-11T10:29:57.158Z,2500
2018-12-11T10:30:29.124Z,2468
2018-12-11T10:31:01.084Z,2476
2018-12-11T10:31:33.048Z,2440
2018-12-11T10:32:05.019Z,2256
2018-12-11T10:32:37.001Z,2428
2018-12-11T10:33:08.991Z,1872
2018-12-11T10:33:40.957Z,1956
2018-12-11T10:34:12.933Z,1800
2018-12-11T10:34:44.923Z,2164
2018-12-11T10:35:16.911Z,2312
2018-12-11T10:35:48.882Z,2276
2018-12-11T10:36:20.866Z,2300
2018-12-11T10:36:53.475Z,2332
2018-12-11T10:37:25.473Z,2396
2018-12-11T10:37:57.474Z,2352
2018-12-11T10:38:29.473Z,1780
2018-12-11T10:39:01.458Z,1996
2018-12-11T10:39:33.468Z,2276
2018-12-11T10:40:05.486Z,2460
2018-12-11T10:40:37.468Z,2476
2018-12-11T10:41:09.493Z,2464
2018-12-11T10:41:41.481Z,2436
2018-12-11T10:42:13.446Z,2404
2018-12-11T10:42:45.423Z,2412
2018-12-11T10:43:17.366Z,2456
2018-12-11T10:43:49.341Z,2528
2018-12-11T10:44:21.316Z,2552
2018-12-11T10:44:53.320Z,2548
2018-12-11T10:45:25.328Z,2560
2018-12-11T10:45:57.303Z,2568
2018-12-11T10:46:35.100Z,2564
2018-12-11T10:47:07.103Z,2572
2018-12-11T10:47:39.084Z,2624
2018-12-11T10:48:11.044Z,2720
2018-12-11T10:48:43.024Z,2836
2018-12-11T10:49:14.997Z,2908
2018-12-11T10:49:46.981Z,2932
2018-12-11T10:50:18.962Z,2944
2018-12-11T10:50:50.941Z,2936
2018-12-11T10:51:22.898Z,2940
2018-12-11T10:51:54.858Z,2928
2018-12-11T10:52:26.846Z,2900
2018-12-11T10:52:58.836Z,2916
2018-12-11T10:53:30.809Z,2932
2018-12-11T10:54:04.065Z,2952
2018-12-11T10:54:36.127Z,2996
2018-12-11T10:55:08.104Z,3004
2018-12-11T10:55:40.095Z,3008
2018-12-11T10:56:12.072Z,3028
2018-12-11T10:56:44.305Z,3056
2018-12-11T10:57:16.305Z,3100
2018-12-11T10:57:48.361Z,3108
2018-12-11T10:58:20.366Z,3144
2018-12-11T10:58:52.350Z,3184
2018-12-11T10:59:24.327Z,3212
2018-12-11T10:59:56.317Z,3272
2018-12-11T11:00:28.293Z,3312
2018-12-11T11:01:00.281Z,3348
2018-12-11T11:01:32.266Z,3336
2018-12-11T11:02:04.250Z,3180
2018-12-11T11:02:36.222Z,3200
2018-12-11T11:03:08.233Z,3076
2018-12-11T11:03:40.210Z,3008
2018-12-11T11:04:12.250Z,2732
2018-12-11T11:04:44.234Z,2456
2018-12-11T11:05:16.223Z,2148
2018-12-11T11:05:48.224Z,2564
2018-12-11T11:06:20.187Z,2628
2018-12-11T11:06:52.186Z,2796
2018-12-11T11:07:24.182Z,2968
2018-12-11T11:07:56.187Z,3236
2018-12-11T11:08:28.149Z,3512
2018-12-11T11:09:00.131Z,3824
2018-12-11T11:09:32.138Z,4084
2018-12-11T11:10:04.140Z,4344
2018-12-11T11:10:36.217Z,4432
2018-12-11T11:11:08.226Z,3864
2018-12-11T11:11:40.221Z,4124
2018-12-11T11:12:13.652Z,3800
2018-12-11T11:12:45.653Z,4428
2018-12-11T11:13:17.749Z,4656
2018-12-11T11:13:49.778Z,4424
2018-12-11T11:14:21.894Z,4092
2018-12-11T11:14:53.923Z,3968
2018-12-11T11:15:26.581Z,3776
2018-12-11T11:15:58.600Z,3668
2018-12-11T11:16:30.580Z,3624
2018-12-11T11:17:02.560Z,3604
2018-12-11T11:17:34.554Z,3240
2018-12-11T11:18:06.557Z,2368
2018-12-11T11:18:38.581Z,1856
2018-12-11T11:19:10.577Z,1800
2018-12-11T11:19:42.562Z,1768
2018-12-11T11:20:14.559Z,1744
2018-12-11T11:20:46.552Z,1732
2018-12-11T11:21:18.557Z,1760
2018-12-11T11:21:50.547Z,1736
2018-12-11T11:22:22.549Z,1648
2018-12-11T11:22:54.533Z,1520
2018-12-11T11:23:26.509Z,1340
2018-12-11T11:23:58.479Z,1136
2018-12-11T11:24:30.457Z,928
2018-12-11T11:25:02.451Z,780
2018-12-11T11:25:34.439Z,664
2018-12-11T11:26:06.446Z,592
2018-12-11T11:26:38.434Z,572
2018-12-11T11:27:10.435Z,580
2018-12-11T11:27:42.426Z,592
2018-12-11T11:28:14.413Z,608
2018-12-11T11:28:46.416Z,628
2018-12-11T11:29:18.405Z,644
2018-12-11T11:29:50.397Z,664
2018-12-11T11:30:22.396Z,680
2018-12-11T11:30:54.371Z,696
2018-12-11T11:31:26.351Z,704
2018-12-11T11:31:58.306Z,708
2018-12-11T11:32:30.287Z,716
2018-12-11T11:33:02.269Z,724
2018-12-11T11:33:34.254Z,724
2018-12-11T11:34:06.253Z,736
2018-12-11T11:34:38.239Z,756
2018-12-11T11:35:10.233Z,784
2018-12-11T11:35:42.224Z,824
2018-12-11T11:36:14.192Z,852
2018-12-11T11:36:46.158Z,868
2018-12-11T11:37:18.152Z,884
2018-12-11T11:37:50.133Z,912
2018-12-11T11:38:22.128Z,956
2018-12-11T11:38:54.114Z,1004
2018-12-11T11:39:26.109Z,1056
2018-12-11T11:39:58.089Z,1100
2018-12-11T11:40:30.055Z,1156
2018-12-11T11:41:02.045Z,1208
2018-12-11T11:41:34.015Z,1272
2018-12-11T11:42:06.000Z,1352
2018-12-11T11:42:37.979Z,1440
2018-12-11T11:43:09.963Z,1520
2018-12-11T11:43:41.939Z,1600
2018-12-11T11:44:13.887Z,1688
2018-12-11T11:44:45.889Z,1752
2018-12-11T11:45:17.883Z,1828
2018-12-11T11:45:49.859Z,1896
2018-12-11T11:46:21.851Z,1936
2018-12-11T11:46:53.824Z,1980
2018-12-11T11:47:25.801Z,2064
2018-12-11T11:47:57.766Z,2180
2018-12-11T11:48:29.738Z,2320
2018-12-11T11:49:01.717Z,2452
2018-12-11T11:49:33.736Z,2588
2018-12-11T11:50:05.711Z,2648
2018-12-11T11:50:37.682Z,2664
2018-12-11T11:51:09.704Z,2828
2018-12-11T11:51:41.683Z,3144
2018-12-11T11:52:13.660Z,3536
2018-12-11T11:52:45.619Z,4068
2018-12-11T11:53:17.596Z,4096
2018-12-11T11:53:49.590Z,3996
2018-12-11T11:54:21.585Z,4028
2018-12-11T11:54:53.570Z,4196
2018-12-11T11:55:25.547Z,4552
2018-12-11T11:55:57.515Z,4948
2018-12-11T11:56:29.497Z,5016
2018-12-11T11:57:01.485Z,4508
2018-12-11T11:57:33.462Z,4476
2018-12-11T11:58:05.437Z,4804
2018-12-11T11:58:37.413Z,3800
2018-12-11T11:59:09.408Z,3128
2018-12-11T11:59:41.376Z,3124
2018-12-11T12:00:13.354Z,3312
2018-12-11T12:00:45.317Z,3824
2018-12-11T12:01:17.306Z,4404
2018-12-11T12:01:49.273Z,4932
2018-12-11T12:02:21.247Z,5412
2018-12-11T12:02:53.224Z,6104
2018-12-11T12:03:25.204Z,6356
2018-12-11T12:03:57.191Z,6248
2018-12-11T12:04:29.186Z,6292
2018-12-11T12:05:01.224Z,6240
2018-12-11T12:05:33.184Z,6464
2018-12-11T12:06:05.159Z,6420
2018-12-11T12:06:37.152Z,6124
2018-12-11T12:07:09.139Z,6756
2018-12-11T12:07:41.126Z,6452
2018-12-11T12:08:13.093Z,4668
2018-12-11T12:08:45.065Z,4624
2018-12-11T12:09:17.045Z,6796
2018-12-11T12:09:49.028Z,6256
2018-12-11T12:10:21.670Z,4684
2018-12-11T12:10:53.689Z,4272
2018-12-11T12:11:25.672Z,4036
2018-12-11T12:11:57.692Z,3144
2018-12-11T12:12:29.668Z,2652
2018-12-11T12:13:01.692Z,1996
2018-12-11T12:13:33.705Z,1676
2018-12-11T12:14:05.673Z,1612
2018-12-11T12:14:37.639Z,1380
2018-12-11T12:15:09.629Z,1304
2018-12-11T12:15:41.605Z,1124
2018-12-11T12:16:13.558Z,1044
2018-12-11T12:16:45.657Z,956
2018-12-11T12:17:17.745Z,972
2018-12-11T12:17:49.716Z,1056
2018-12-11T12:18:21.696Z,1180
2018-12-11T12:18:53.695Z,1332
2018-12-11T12:19:25.684Z,1520
2018-12-11T12:19:57.679Z,1712
2018-12-11T12:20:29.654Z,1896
2018-12-11T12:21:01.635Z,2040
2018-12-11T12:21:33.609Z,2168
2018-12-11T12:22:05.606Z,2312
2018-12-11T12:22:37.596Z,2408
2018-12-11T12:23:09.596Z,2492
2018-12-11T12:23:41.653Z,2572
2018-12-11T12:24:13.653Z,2632
2018-12-11T12:24:45.676Z,2664
2018-12-11T12:25:17.652Z,2660
2018-12-11T12:25:49.715Z,2664
2018-12-11T12:26:21.712Z,2652
2018-12-11T12:26:53.697Z,2632
2018-12-11T12:27:25.724Z,2604
2018-12-11T12:27:57.704Z,2560
2018-12-11T12:28:29.682Z,2492
2018-12-11T12:29:01.648Z,2396
2018-12-11T12:29:33.618Z,2256
2018-12-11T12:30:05.596Z,2064
2018-12-11T12:30:37.571Z,1872
2018-12-11T12:31:09.546Z,1740
2018-12-11T12:31:41.537Z,1672
2018-12-11T12:32:13.542Z,1604
2018-12-11T12:32:45.501Z,1560
2018-12-11T12:33:17.470Z,1588
2018-12-11T12:33:49.547Z,1608
2018-12-11T12:34:21.513Z,1672
2018-12-11T12:34:53.497Z,1776
2018-12-11T12:35:25.505Z,1808
2018-12-11T12:35:57.499Z,1816
2018-12-11T12:36:29.506Z,1824
2018-12-11T12:37:01.487Z,1856
2018-12-11T12:37:33.494Z,1912
2018-12-11T12:38:05.479Z,1996
2018-12-11T12:38:37.468Z,2060
2018-12-11T12:39:09.533Z,2060
2018-12-11T12:39:41.487Z,2016
2018-12-11T12:40:13.448Z,1940
2018-12-11T12:40:45.451Z,1888
2018-12-11T12:41:17.438Z,1872
2018-12-11T12:41:49.412Z,1856
2018-12-11T12:42:21.395Z,1868
2018-12-11T12:42:53.372Z,1896
2018-12-11T12:43:25.330Z,1884
2018-12-11T12:43:57.322Z,1924
2018-12-11T12:44:29.301Z,1956
2018-12-11T12:45:01.296Z,1940
2018-12-11T12:45:33.286Z,1912
2018-12-11T12:46:05.251Z,1868
2018-12-11T12:46:37.256Z,1852
2018-12-11T12:47:09.249Z,1860
2018-12-11T12:47:41.235Z,1892
2018-12-11T12:48:13.220Z,1956
2018-12-11T12:48:45.222Z,2024
2018-12-11T12:49:17.225Z,2068
2018-12-11T12:49:53.117Z,2108
2018-12-11T12:50:34.585Z,2072
2018-12-11T12:51:06.563Z,1988
2018-12-11T12:51:38.551Z,1964
2018-12-11T12:52:10.528Z,2036
2018-12-11T12:52:42.502Z,2156
2018-12-11T12:53:14.528Z,2224
2018-12-11T12:53:46.513Z,2228
2018-12-11T12:54:18.519Z,2224
2018-12-11T12:54:50.485Z,2240
2018-12-11T12:55:22.479Z,2224
2018-12-11T12:55:54.443Z,2228
2018-12-11T12:56:26.439Z,2220
2018-12-11T12:56:58.406Z,2196
2018-12-11T12:57:30.443Z,2208
2018-12-11T12:58:02.424Z,2256
2018-12-11T12:58:34.404Z,2236
2018-12-11T12:59:06.396Z,2176
2018-12-11T12:59:38.502Z,2088
2018-12-11T13:00:10.532Z,1960
2018-12-11T13:00:42.531Z,1780
2018-12-11T13:01:14.514Z,1596
2018-12-11T13:01:46.490Z,1912
2018-12-11T13:02:18.484Z,1472
2018-12-11T13:02:51.400Z,1368
2018-12-11T13:03:23.375Z,1396
2018-12-11T13:03:55.352Z,1452
2018-12-11T13:04:27.362Z,1576
2018-12-11T13:04:59.372Z,1728
2018-12-11T13:05:31.352Z,1764
2018-12-11T13:06:03.333Z,1660
2018-12-11T13:06:35.327Z,1596
2018-12-11T13:07:07.370Z,1756
2018-12-11T13:07:39.337Z,2136
2018-12-11T13:08:11.327Z,2600
2018-12-11T13:08:43.333Z,3368
2018-12-11T13:09:15.296Z,3336
2018-12-11T13:09:47.281Z,7812
2018-12-11T13:10:19.283Z,9620
2018-12-11T13:10:51.392Z,11032
2018-12-11T13:11:23.355Z,13504
2018-12-11T13:11:55.462Z,14760
2018-12-11T13:12:27.476Z,15460
2018-12-11T13:12:59.466Z,15236
2018-12-11T13:13:31.455Z,14884
2018-12-11T13:14:03.510Z,13160
2018-12-11T13:14:35.485Z,12624
2018-12-11T13:15:08.542Z,12256
2018-12-11T13:15:40.526Z,8056
2018-12-11T13:16:14.163Z,12336
2018-12-11T13:16:46.178Z,12804
2018-12-11T13:17:18.168Z,13896
2018-12-11T13:17:50.152Z,14224
2018-12-11T13:18:22.133Z,14848
2018-12-11T13:18:54.120Z,19648
2018-12-11T13:19:26.113Z,18528
2018-12-11T13:19:58.084Z,18784
2018-12-11T13:20:30.086Z,21504
2018-12-11T13:21:02.066Z,8432
2018-12-11T13:21:34.031Z,16928
2018-12-11T13:22:06.008Z,13912
2018-12-11T13:22:37.990Z,3268
2018-12-11T13:23:10.030Z,2692
2018-12-11T13:23:42.019Z,4068
2018-12-11T13:24:13.995Z,13880
2018-12-11T13:24:45.964Z,15964
2018-12-11T13:25:17.938Z,13036
2018-12-11T13:25:49.927Z,11472
2018-12-11T13:26:21.896Z,7532
2018-12-11T13:26:53.896Z,3444
2018-12-11T13:27:26.532Z,3300
2018-12-11T13:27:58.520Z,10708
2018-12-11T13:28:30.497Z,16068
2018-12-11T13:29:02.470Z,16640
2018-12-11T13:29:34.449Z,16640
2018-12-11T13:30:06.429Z,6168
2018-12-11T13:30:38.402Z,16640
2018-12-11T13:31:10.381Z,16672
2018-12-11T13:31:42.356Z,15876
2018-12-11T13:32:14.320Z,15352
2018-12-11T13:32:46.320Z,6592
2018-12-11T13:33:18.475Z,6180
2018-12-11T13:33:50.534Z,8672
2018-12-11T13:34:22.529Z,7216
2018-12-11T13:34:54.627Z,8908
2018-12-11T13:35:26.675Z,8588
2018-12-11T13:35:58.759Z,12116
2018-12-11T13:36:33.615Z,10848
2018-12-11T13:37:05.586Z,10440
2018-12-11T13:37:37.582Z,10256
2018-12-11T13:38:09.709Z,9624
2018-12-11T13:38:41.775Z,9832
2018-12-11T13:39:13.752Z,8176
2018-12-11T13:39:45.841Z,4368
2018-12-11T13:40:17.899Z,3940
2018-12-11T13:40:49.871Z,3116
2018-12-11T13:41:21.862Z,5080
2018-12-11T13:41:53.844Z,5480
2018-12-11T13:42:25.821Z,3452
2018-12-11T13:42:57.825Z,3336
2018-12-11T13:43:29.808Z,3040
2018-12-11T13:44:01.775Z,2660
2018-12-11T13:44:33.780Z,2668
2018-12-11T13:45:05.754Z,3236
2018-12-11T13:45:37.946Z,5620
2018-12-11T13:46:10.300Z,6888
2018-12-11T13:46:42.325Z,5120
2018-12-11T13:47:14.318Z,9416
2018-12-11T13:47:46.294Z,8120
2018-12-11T13:48:24.550Z,6764
2018-12-11T13:48:56.526Z,5076
2018-12-11T13:49:28.503Z,5748
2018-12-11T13:50:00.491Z,6544
2018-12-11T13:50:32.496Z,7044
2018-12-11T13:51:04.484Z,7228
2018-12-11T13:51:36.479Z,7892
2018-12-11T13:52:08.470Z,7624
2018-12-11T13:52:40.431Z,7060
2018-12-11T13:53:12.436Z,6488
2018-12-11T13:53:44.431Z,5344
2018-12-11T13:54:16.427Z,4464
2018-12-11T13:54:48.433Z,3912
2018-12-11T13:55:20.465Z,4192
2018-12-11T13:55:52.416Z,4620
2018-12-11T13:56:24.449Z,5064
2018-12-11T13:56:56.428Z,5508
2018-12-11T13:57:28.414Z,5824
2018-12-11T13:58:00.411Z,5816
2018-12-11T13:58:32.394Z,6500
2018-12-11T13:59:04.363Z,7384
2018-12-11T13:59:36.335Z,8448
2018-12-11T14:00:08.318Z,9880
2018-12-11T14:00:40.272Z,10224
2018-12-11T14:01:12.297Z,10476
2018-12-11T14:01:44.337Z,10284
2018-12-11T14:02:16.342Z,9576
2018-12-11T14:02:48.315Z,9036
2018-12-11T14:03:20.299Z,8284
2018-12-11T14:03:52.271Z,7696
2018-12-11T14:04:24.263Z,6764
2018-12-11T14:04:56.250Z,6092
2018-12-11T14:05:28.219Z,5188
2018-12-11T14:06:00.203Z,4624
2018-12-11T14:06:32.190Z,4288
2018-12-11T14:07:04.175Z,3996
2018-12-11T14:07:36.134Z,3384
2018-12-11T14:08:08.108Z,3200
2018-12-11T14:08:40.073Z,3384
2018-12-11T14:09:12.085Z,1708
2018-12-11T14:09:44.052Z,1452
2018-12-11T14:10:16.049Z,1096
2018-12-11T14:10:48.031Z,1040
2018-12-11T14:11:20.007Z,988
2018-12-11T14:11:51.991Z,1760
2018-12-11T14:12:23.963Z,2268
2018-12-11T14:12:55.938Z,1468
2018-12-11T14:13:27.922Z,868
2018-12-11T14:13:59.924Z,828
2018-12-11T14:14:31.908Z,792
2018-12-11T14:15:03.896Z,772
2018-12-11T14:15:35.881Z,756
2018-12-11T14:16:07.834Z,740
2018-12-11T14:16:39.800Z,740
2018-12-11T14:17:11.798Z,736
2018-12-11T14:17:43.949Z,736
2018-12-11T14:18:15.949Z,740
2018-12-11T14:18:47.946Z,736
2018-12-11T14:19:19.950Z,736
2018-12-11T14:19:51.935Z,728
2018-12-11T14:20:23.910Z,724
2018-12-11T14:20:55.899Z,720
2018-12-11T14:21:27.891Z,712
2018-12-11T14:21:59.877Z,708
2018-12-11T14:22:31.846Z,708
2018-12-11T14:23:03.837Z,712
2018-12-11T14:23:35.885Z,716
2018-12-11T14:24:07.895Z,728
2018-12-11T14:24:39.914Z,740
2018-12-11T14:25:11.888Z,756
2018-12-11T14:25:43.865Z,772
2018-12-11T14:26:15.831Z,784
2018-12-11T14:26:47.863Z,788
2018-12-11T14:27:19.864Z,784
2018-12-11T14:27:51.909Z,772
2018-12-11T14:28:24.165Z,756
2018-12-11T14:28:56.241Z,736
2018-12-11T14:29:28.210Z,716
2018-12-11T14:30:00.218Z,692
2018-12-11T14:30:32.206Z,672
2018-12-11T14:31:04.203Z,656
2018-12-11T14:31:36.194Z,644
2018-12-11T14:32:08.197Z,624
2018-12-11T14:32:40.171Z,616
2018-12-11T14:33:12.146Z,600
2018-12-11T14:33:44.198Z,596
2018-12-11T14:34:16.200Z,592
2018-12-11T14:34:48.178Z,584
2018-12-11T14:35:20.193Z,576
2018-12-11T14:35:52.198Z,572
2018-12-11T14:36:24.166Z,564
2018-12-11T14:36:56.154Z,564
2018-12-11T14:37:28.138Z,560
2018-12-11T14:38:00.104Z,564
2018-12-11T14:38:32.111Z,568
2018-12-11T14:39:04.075Z,564
2018-12-11T14:39:36.057Z,556
2018-12-11T14:40:08.043Z,528
2018-12-11T14:40:40.022Z,504
2018-12-11T14:41:12.025Z,476
2018-12-11T14:41:44.021Z,468
2018-12-11T14:42:16.018Z,468
2018-12-11T14:42:48.023Z,468
2018-12-11T14:43:20.036Z,476
2018-12-11T14:43:52.121Z,476
2018-12-11T14:44:24.202Z,484
2018-12-11T14:44:56.193Z,484
2018-12-11T14:45:28.178Z,480
2018-12-11T14:46:00.184Z,476
2018-12-11T14:46:32.171Z,472
2018-12-11T14:47:04.163Z,468
2018-12-11T14:47:36.154Z,464
2018-12-11T14:48:08.146Z,460
2018-12-11T14:48:40.126Z,456
2018-12-11T14:49:12.120Z,452
2018-12-11T14:49:44.085Z,448
2018-12-11T14:50:16.063Z,444
2018-12-11T14:50:48.034Z,440
2018-12-11T14:51:20.031Z,440
2018-12-11T14:51:52.025Z,440
2018-12-11T14:52:23.992Z,440
2018-12-11T14:52:55.966Z,432
2018-12-11T14:53:27.944Z,424
2018-12-11T14:53:59.927Z,404
2018-12-11T14:54:31.912Z,376
2018-12-11T14:55:03.899Z,344
2018-12-11T14:55:35.840Z,308
2018-12-11T14:56:07.805Z,276
2018-12-11T14:56:39.783Z,248
2018-12-11T14:57:11.777Z,224
2018-12-11T14:57:43.770Z,204
2018-12-11T14:58:15.762Z,184
2018-12-11T14:58:47.730Z,172
2018-12-11T14:59:19.687Z,160
2018-12-11T14:59:51.678Z,152
2018-12-11T15:00:23.652Z,152
2018-12-11T15:00:55.640Z,148
2018-12-11T15:01:27.622Z,144
2018-12-11T15:01:59.621Z,144
2018-12-11T15:02:31.608Z,140
2018-12-11T15:03:03.586Z,140
2018-12-11T15:03:35.572Z,140
2018-12-11T15:04:07.549Z,136
2018-12-11T15:04:39.515Z,132
2018-12-11T15:05:11.485Z,128
2018-12-11T15:05:43.453Z,128
2018-12-11T15:06:15.405Z,128
2018-12-11T15:06:47.390Z,120
2018-12-11T15:07:19.373Z,120
2018-12-11T15:07:51.352Z,120